Terminal Aerodrome Forecast
Issued by NWS

Current Version | Previous Version | Text Only | Print | Product List | Glossary On
Versions: 1 2 3 4 5 6 7 8 9 10 11 12 13 14 15 16 17
354
FTUS44 KJAN 231512 AAA
TAFHKS
TAF AMD
KHKS 231512Z 2315/2412 34010KT P6SM SKC
     FM232300 32006KT P6SM BKN015
     FM240200 33003KT P6SM SKC=

USA.gov is the U.S. government's official web portal to all federal, state and local government web resources and services.